Utica, Kansas
Current Conditions -  °F | °C
As of 8:55 PM on Wednesday 26 Nov 2014 (Local Time) from KHYS Reporting Station
Broken Clouds Broken Clouds  
Wind Chill: 23°   Ceiling: 9000
Heat Index: 30°   Visibility: 10mi
Dew Point: 16°   Wind: 8mph
Humidity: 55%   Direction: 10°N
Pressure: 30.4"   Gusts: NA
Location:  38.64°N, 100.17°W
Report Text: KHYS 270255Z AUTO 01007KT 10SM BKN090 BKN120 M01/M09 A3040 RMK AO1 52017
Loading
Personal Weather Stations






























Interactive Weather Map New forecast layout! Learn more

10-Day Weather Forecast

Advertisements
Track Severe Weather on mobile